sensor_id;sensor_type;location;lat;lon;timestamp;temperature;humidity
3208;DHT22;1616;52.394;9.756;2023-07-20T00:01:21;18.10;1.00
3208;DHT22;1616;52.394;9.756;2023-07-20T00:03:47;18.10;1.00
3208;DHT22;1616;52.394;9.756;2023-07-20T00:06:21;18.00;1.00
3208;DHT22;1616;52.394;9.756;2023-07-20T00:08:48;17.90;1.00
3208;DHT22;1616;52.394;9.756;2023-07-20T00:11:14;17.90;1.00
3208;DHT22;1616;52.394;9.756;2023-07-20T00:13:39;17.90;1.00
3208;DHT22;1616;52.394;9.756;2023-07-20T00:16:05;17.80;1.00
3208;DHT22;1616;52.394;9.756;2023-07-20T00:18:32;17.80;1.00
3208;DHT22;1616;52.394;9.756;2023-07-20T00:20:58;17.80;1.00
3208;DHT22;1616;52.394;9.756;2023-07-20T00:23:25;17.80;1.00
3208;DHT22;1616;52.394;9.756;2023-07-20T00:25:51;17.80;1.00
3208;DHT22;1616;52.394;9.756;2023-07-20T00:28:20;17.80;1.00
3208;DHT22;1616;52.394;9.756;2023-07-20T00:30:46;17.80;1.00
3208;DHT22;1616;52.394;9.756;2023-07-20T00:33:12;17.80;1.00
3208;DHT22;1616;52.394;9.756;2023-07-20T00:35:38;17.90;1.00
3208;DHT22;1616;52.394;9.756;2023-07-20T00:38:05;17.90;1.00
3208;DHT22;1616;52.394;9.756;2023-07-20T00:40:37;17.90;1.00
3208;DHT22;1616;52.394;9.756;2023-07-20T00:43:03;17.90;1.00
3208;DHT22;1616;52.394;9.756;2023-07-20T00:45:29;17.90;1.00
3208;DHT22;1616;52.394;9.756;2023-07-20T00:47:56;17.90;1.00
3208;DHT22;1616;52.394;9.756;2023-07-20T00:50:23;17.80;1.00
3208;DHT22;1616;52.394;9.756;2023-07-20T00:52:49;17.70;1.00
3208;DHT22;1616;52.394;9.756;2023-07-20T00:55:15;17.70;1.00
3208;DHT22;1616;52.394;9.756;2023-07-20T00:57:41;17.60;1.00
3208;DHT22;1616;52.394;9.756;2023-07-20T01:00:07;17.60;1.00
3208;DHT22;1616;52.394;9.756;2023-07-20T01:02:33;17.60;1.00
3208;DHT22;1616;52.394;9.756;2023-07-20T01:04:59;17.60;1.00
3208;DHT22;1616;52.394;9.756;2023-07-20T01:07:31;17.50;1.00
3208;DHT22;1616;52.394;9.756;2023-07-20T01:10:03;17.50;1.00
3208;DHT22;1616;52.394;9.756;2023-07-20T01:12:42;17.50;1.00
3208;DHT22;1616;52.394;9.756;2023-07-20T01:15:08;17.50;1.00
3208;DHT22;1616;52.394;9.756;2023-07-20T01:17:35;17.50;1.00
3208;DHT22;1616;52.394;9.756;2023-07-20T01:20:00;17.40;1.00
3208;DHT22;1616;52.394;9.756;2023-07-20T01:30:50;17.50;1.00
3208;DHT22;1616;52.394;9.756;2023-07-20T01:33:18;17.40;1.00
3208;DHT22;1616;52.394;9.756;2023-07-20T01:35:56;17.40;1.00
3208;DHT22;1616;52.394;9.756;2023-07-20T01:38:24;17.40;1.00
3208;DHT22;1616;52.394;9.756;2023-07-20T01:40:50;17.40;1.00
3208;DHT22;1616;52.394;9.756;2023-07-20T01:43:16;17.30;1.00
3208;DHT22;1616;52.394;9.756;2023-07-20T01:45:43;17.20;1.00
3208;DHT22;1616;52.394;9.756;2023-07-20T01:48:09;17.30;1.00
3208;DHT22;1616;52.394;9.756;2023-07-20T01:50:35;17.30;1.00
3208;DHT22;1616;52.394;9.756;2023-07-20T01:53:01;17.40;1.00
3208;DHT22;1616;52.394;9.756;2023-07-20T01:55:26;17.40;1.00
3208;DHT22;1616;52.394;9.756;2023-07-20T01:57:53;17.40;1.00
3208;DHT22;1616;52.394;9.756;2023-07-20T02:00:19;17.50;1.00
3208;DHT22;1616;52.394;9.756;2023-07-20T02:02:47;17.60;1.00
3208;DHT22;1616;52.394;9.756;2023-07-20T02:05:13;17.60;1.00
3208;DHT22;1616;52.394;9.756;2023-07-20T02:07:38;17.70;1.00
3208;DHT22;1616;52.394;9.756;2023-07-20T02:10:05;17.70;1.00
3208;DHT22;1616;52.394;9.756;2023-07-20T02:12:31;17.80;1.00
3208;DHT22;1616;52.394;9.756;2023-07-20T02:14:56;17.80;1.00
3208;DHT22;1616;52.394;9.756;2023-07-20T02:17:22;17.80;1.00
3208;DHT22;1616;52.394;9.756;2023-07-20T02:19:52;17.80;1.00
3208;DHT22;1616;52.394;9.756;2023-07-20T02:22:18;17.70;1.00
3208;DHT22;1616;52.394;9.756;2023-07-20T02:24:44;17.70;1.00
3208;DHT22;1616;52.394;9.756;2023-07-20T02:27:09;17.50;1.00
3208;DHT22;1616;52.394;9.756;2023-07-20T02:29:35;17.60;1.00
3208;DHT22;1616;52.394;9.756;2023-07-20T02:32:02;17.60;1.00
3208;DHT22;1616;52.394;9.756;2023-07-20T02:34:27;17.50;1.00
3208;DHT22;1616;52.394;9.756;2023-07-20T02:36:54;17.50;1.00
3208;DHT22;1616;52.394;9.756;2023-07-20T02:39:22;17.60;1.00
3208;DHT22;1616;52.394;9.756;2023-07-20T02:41:47;17.50;1.00
3208;DHT22;1616;52.394;9.756;2023-07-20T02:44:14;17.50;1.00
3208;DHT22;1616;52.394;9.756;2023-07-20T02:46:39;17.50;1.00
3208;DHT22;1616;52.394;9.756;2023-07-20T02:49:05;17.50;1.00
3208;DHT22;1616;52.394;9.756;2023-07-20T02:51:31;17.50;1.00
3208;DHT22;1616;52.394;9.756;2023-07-20T02:53:56;17.50;1.00
3208;DHT22;1616;52.394;9.756;2023-07-20T02:56:22;17.60;1.00
3208;DHT22;1616;52.394;9.756;2023-07-20T02:58:48;17.60;1.00
3208;DHT22;1616;52.394;9.756;2023-07-20T03:01:14;17.60;1.00
3208;DHT22;1616;52.394;9.756;2023-07-20T03:03:42;17.60;1.00
3208;DHT22;1616;52.394;9.756;2023-07-20T03:06:11;17.60;1.00
3208;DHT22;1616;52.394;9.756;2023-07-20T03:08:37;17.60;1.00
3208;DHT22;1616;52.394;9.756;2023-07-20T03:11:02;17.70;1.00
3208;DHT22;1616;52.394;9.756;2023-07-20T03:13:28;17.70;1.00
3208;DHT22;1616;52.394;9.756;2023-07-20T03:15:54;17.80;1.00
3208;DHT22;1616;52.394;9.756;2023-07-20T03:18:19;17.80;1.00
3208;DHT22;1616;52.394;9.756;2023-07-20T03:20:45;17.80;1.00
3208;DHT22;1616;52.394;9.756;2023-07-20T03:23:11;17.80;1.00
3208;DHT22;1616;52.394;9.756;2023-07-20T03:25:37;17.80;1.00
3208;DHT22;1616;52.394;9.756;2023-07-20T03:28:04;17.90;1.00
3208;DHT22;1616;52.394;9.756;2023-07-20T03:30:30;18.00;1.00
3208;DHT22;1616;52.394;9.756;2023-07-20T03:32:55;18.00;1.00
3208;DHT22;1616;52.394;9.756;2023-07-20T03:35:21;18.00;1.00
3208;DHT22;1616;52.394;9.756;2023-07-20T03:37:47;18.00;1.00
3208;DHT22;1616;52.394;9.756;2023-07-20T03:40:13;18.00;1.00
3208;DHT22;1616;52.394;9.756;2023-07-20T03:42:40;18.00;1.00
3208;DHT22;1616;52.394;9.756;2023-07-20T03:45:06;18.10;1.00
3208;DHT22;1616;52.394;9.756;2023-07-20T03:47:32;18.10;1.00
3208;DHT22;1616;52.394;9.756;2023-07-20T03:49:57;18.10;1.00
3208;DHT22;1616;52.394;9.756;2023-07-20T03:52:23;18.00;1.00
3208;DHT22;1616;52.394;9.756;2023-07-20T03:54:49;18.00;1.00
3208;DHT22;1616;52.394;9.756;2023-07-20T03:57:17;18.00;1.00
3208;DHT22;1616;52.394;9.756;2023-07-20T03:59:45;18.00;1.00
3208;DHT22;1616;52.394;9.756;2023-07-20T04:02:11;18.10;1.00
3208;DHT22;1616;52.394;9.756;2023-07-20T04:04:37;18.10;1.00
3208;DHT22;1616;52.394;9.756;2023-07-20T04:07:03;18.20;1.00
3208;DHT22;1616;52.394;9.756;2023-07-20T04:09:31;18.30;1.00
3208;DHT22;1616;52.394;9.756;2023-07-20T04:11:57;18.40;1.00
3208;DHT22;1616;52.394;9.756;2023-07-20T04:14:22;18.40;1.00
3208;DHT22;1616;52.394;9.756;2023-07-20T04:16:48;18.40;1.00
3208;DHT22;1616;52.394;9.756;2023-07-20T04:19:13;18.40;1.00
3208;DHT22;1616;52.394;9.756;2023-07-20T04:21:42;18.40;1.00
3208;DHT22;1616;52.394;9.756;2023-07-20T04:24:08;18.20;1.00
3208;DHT22;1616;52.394;9.756;2023-07-20T04:26:33;17.90;1.00
3208;DHT22;1616;52.394;9.756;2023-07-20T04:28:59;17.70;1.00
3208;DHT22;1616;52.394;9.756;2023-07-20T04:31:25;17.50;1.00
3208;DHT22;1616;52.394;9.756;2023-07-20T04:33:51;17.30;1.00
3208;DHT22;1616;52.394;9.756;2023-07-20T04:36:17;17.10;1.00
3208;DHT22;1616;52.394;9.756;2023-07-20T04:38:45;17.00;1.00
3208;DHT22;1616;52.394;9.756;2023-07-20T04:41:11;16.80;1.00
3208;DHT22;1616;52.394;9.756;2023-07-20T04:43:43;16.70;1.00
3208;DHT22;1616;52.394;9.756;2023-07-20T04:46:10;16.60;1.00
3208;DHT22;1616;52.394;9.756;2023-07-20T04:48:36;16.60;1.00
3208;DHT22;1616;52.394;9.756;2023-07-20T04:51:02;16.50;1.00
3208;DHT22;1616;52.394;9.756;2023-07-20T04:53:28;16.50;1.00
3208;DHT22;1616;52.394;9.756;2023-07-20T04:55:54;16.40;1.00
3208;DHT22;1616;52.394;9.756;2023-07-20T04:58:21;16.40;1.00
3208;DHT22;1616;52.394;9.756;2023-07-20T05:00:48;16.30;1.00
3208;DHT22;1616;52.394;9.756;2023-07-20T05:03:14;16.30;1.00
3208;DHT22;1616;52.394;9.756;2023-07-20T05:05:40;16.20;1.00
3208;DHT22;1616;52.394;9.756;2023-07-20T05:08:05;16.30;1.00
3208;DHT22;1616;52.394;9.756;2023-07-20T05:10:31;16.20;1.00
3208;DHT22;1616;52.394;9.756;2023-07-20T05:12:58;16.20;1.00
3208;DHT22;1616;52.394;9.756;2023-07-20T05:15:24;16.20;1.00
3208;DHT22;1616;52.394;9.756;2023-07-20T05:17:49;16.30;1.00
3208;DHT22;1616;52.394;9.756;2023-07-20T05:20:15;16.30;1.00
3208;DHT22;1616;52.394;9.756;2023-07-20T05:22:42;16.40;1.00
3208;DHT22;1616;52.394;9.756;2023-07-20T05:25:09;16.40;1.00
3208;DHT22;1616;52.394;9.756;2023-07-20T05:27:39;16.50;1.00
3208;DHT22;1616;52.394;9.756;2023-07-20T05:30:05;16.50;1.00
3208;DHT22;1616;52.394;9.756;2023-07-20T05:32:32;16.60;1.00
3208;DHT22;1616;52.394;9.756;2023-07-20T05:34:58;16.70;1.00
3208;DHT22;1616;52.394;9.756;2023-07-20T05:37:24;16.70;1.00
3208;DHT22;1616;52.394;9.756;2023-07-20T05:39:50;16.80;1.00
3208;DHT22;1616;52.394;9.756;2023-07-20T05:42:15;16.80;1.00
3208;DHT22;1616;52.394;9.756;2023-07-20T05:44:42;16.90;1.00
3208;DHT22;1616;52.394;9.756;2023-07-20T05:47:08;16.90;1.00
3208;DHT22;1616;52.394;9.756;2023-07-20T05:49:35;17.00;1.00
3208;DHT22;1616;52.394;9.756;2023-07-20T05:52:01;17.00;1.00
3208;DHT22;1616;52.394;9.756;2023-07-20T05:54:27;17.10;1.00
3208;DHT22;1616;52.394;9.756;2023-07-20T05:56:54;17.10;1.00
3208;DHT22;1616;52.394;9.756;2023-07-20T05:59:20;17.20;1.00
3208;DHT22;1616;52.394;9.756;2023-07-20T06:01:45;17.20;1.00
3208;DHT22;1616;52.394;9.756;2023-07-20T06:04:13;17.20;1.00
3208;DHT22;1616;52.394;9.756;2023-07-20T06:06:39;17.20;1.00
3208;DHT22;1616;52.394;9.756;2023-07-20T06:09:05;17.30;1.00
3208;DHT22;1616;52.394;9.756;2023-07-20T06:11:33;17.30;1.00
3208;DHT22;1616;52.394;9.756;2023-07-20T06:13:59;17.40;1.00
3208;DHT22;1616;52.394;9.756;2023-07-20T06:16:24;17.50;1.00
3208;DHT22;1616;52.394;9.756;2023-07-20T06:18:50;17.70;1.00
3208;DHT22;1616;52.394;9.756;2023-07-20T06:21:15;18.00;1.00
3208;DHT22;1616;52.394;9.756;2023-07-20T06:23:41;18.20;1.00
3208;DHT22;1616;52.394;9.756;2023-07-20T06:26:07;18.30;1.00
3208;DHT22;1616;52.394;9.756;2023-07-20T06:28:33;18.50;1.00
3208;DHT22;1616;52.394;9.756;2023-07-20T06:31:03;18.70;1.00
3208;DHT22;1616;52.394;9.756;2023-07-20T06:33:29;18.90;1.00
3208;DHT22;1616;52.394;9.756;2023-07-20T06:35:55;19.10;1.00
3208;DHT22;1616;52.394;9.756;2023-07-20T06:38:22;19.20;1.00
3208;DHT22;1616;52.394;9.756;2023-07-20T06:40:49;19.20;1.00
3208;DHT22;1616;52.394;9.756;2023-07-20T06:43:15;19.30;1.00
3208;DHT22;1616;52.394;9.756;2023-07-20T06:45:42;19.20;1.00
3208;DHT22;1616;52.394;9.756;2023-07-20T06:48:07;19.30;1.00
3208;DHT22;1616;52.394;9.756;2023-07-20T06:50:33;19.30;1.00
3208;DHT22;1616;52.394;9.756;2023-07-20T06:52:59;19.40;1.00
3208;DHT22;1616;52.394;9.756;2023-07-20T06:55:26;19.60;1.00
3208;DHT22;1616;52.394;9.756;2023-07-20T06:57:51;20.10;1.00
3208;DHT22;1616;52.394;9.756;2023-07-20T07:00:17;20.70;1.00
3208;DHT22;1616;52.394;9.756;2023-07-20T07:02:43;21.20;1.00
3208;DHT22;1616;52.394;9.756;2023-07-20T07:05:09;21.70;1.00
3208;DHT22;1616;52.394;9.756;2023-07-20T07:07:35;22.00;1.00
3208;DHT22;1616;52.394;9.756;2023-07-20T07:10:01;22.10;1.00
3208;DHT22;1616;52.394;9.756;2023-07-20T07:12:30;22.10;1.00
3208;DHT22;1616;52.394;9.756;2023-07-20T07:14:56;22.00;1.00
3208;DHT22;1616;52.394;9.756;2023-07-20T07:17:21;22.40;1.00
3208;DHT22;1616;52.394;9.756;2023-07-20T07:19:47;23.30;1.00
3208;DHT22;1616;52.394;9.756;2023-07-20T07:22:13;24.10;1.00
3208;DHT22;1616;52.394;9.756;2023-07-20T07:24:40;24.80;1.00
3208;DHT22;1616;52.394;9.756;2023-07-20T07:27:08;25.80;1.00
3208;DHT22;1616;52.394;9.756;2023-07-20T07:29:35;26.90;1.00
3208;DHT22;1616;52.394;9.756;2023-07-20T07:32:01;28.00;1.00
3208;DHT22;1616;52.394;9.756;2023-07-20T07:34:27;28.60;1.00
3208;DHT22;1616;52.394;9.756;2023-07-20T07:36:53;28.80;1.00
3208;DHT22;1616;52.394;9.756;2023-07-20T07:39:19;28.50;1.00
3208;DHT22;1616;52.394;9.756;2023-07-20T07:41:46;28.10;1.00
3208;DHT22;1616;52.394;9.756;2023-07-20T07:44:11;27.50;1.00
3208;DHT22;1616;52.394;9.756;2023-07-20T07:46:37;27.20;1.00
3208;DHT22;1616;52.394;9.756;2023-07-20T07:49:03;27.40;1.00
3208;DHT22;1616;52.394;9.756;2023-07-20T07:51:29;27.90;1.00
3208;DHT22;1616;52.394;9.756;2023-07-20T07:53:55;28.70;1.00
3208;DHT22;1616;52.394;9.756;2023-07-20T07:56:20;29.50;1.00
3208;DHT22;1616;52.394;9.756;2023-07-20T07:58:50;29.40;1.00
3208;DHT22;1616;52.394;9.756;2023-07-20T08:01:17;29.00;1.00
3208;DHT22;1616;52.394;9.756;2023-07-20T08:03:45;28.30;1.00
3208;DHT22;1616;52.394;9.756;2023-07-20T08:06:15;27.50;1.00
3208;DHT22;1616;52.394;9.756;2023-07-20T08:08:41;27.30;1.00
3208;DHT22;1616;52.394;9.756;2023-07-20T08:11:08;27.60;1.00
3208;DHT22;1616;52.394;9.756;2023-07-20T08:13:34;28.20;1.00
3208;DHT22;1616;52.394;9.756;2023-07-20T08:16:01;28.90;1.00
3208;DHT22;1616;52.394;9.756;2023-07-20T08:18:30;29.40;1.00
3208;DHT22;1616;52.394;9.756;2023-07-20T08:20:56;29.90;1.00
3208;DHT22;1616;52.394;9.756;2023-07-20T08:23:22;30.00;1.00
3208;DHT22;1616;52.394;9.756;2023-07-20T08:25:48;30.00;1.00
3208;DHT22;1616;52.394;9.756;2023-07-20T08:28:15;30.20;1.00
3208;DHT22;1616;52.394;9.756;2023-07-20T08:30:45;30.50;1.00
3208;DHT22;1616;52.394;9.756;2023-07-20T08:33:13;30.50;1.00
3208;DHT22;1616;52.394;9.756;2023-07-20T08:35:39;30.50;1.00
3208;DHT22;1616;52.394;9.756;2023-07-20T08:38:06;30.60;1.00
3208;DHT22;1616;52.394;9.756;2023-07-20T08:40:33;30.80;1.00
3208;DHT22;1616;52.394;9.756;2023-07-20T08:43:00;31.20;1.00
3208;DHT22;1616;52.394;9.756;2023-07-20T08:45:28;31.70;1.00
3208;DHT22;1616;52.394;9.756;2023-07-20T08:47:56;32.20;1.00
3208;DHT22;1616;52.394;9.756;2023-07-20T08:50:25;32.60;1.00
3208;DHT22;1616;52.394;9.756;2023-07-20T08:52:52;32.80;1.00
3208;DHT22;1616;52.394;9.756;2023-07-20T08:55:20;33.20;1.00
3208;DHT22;1616;52.394;9.756;2023-07-20T08:57:49;33.30;1.00
3208;DHT22;1616;52.394;9.756;2023-07-20T09:00:17;33.10;1.00
3208;DHT22;1616;52.394;9.756;2023-07-20T09:02:45;32.80;1.00
3208;DHT22;1616;52.394;9.756;2023-07-20T09:05:11;32.40;1.00
3208;DHT22;1616;52.394;9.756;2023-07-20T09:07:40;31.70;1.00
3208;DHT22;1616;52.394;9.756;2023-07-20T09:10:07;31.00;1.00
3208;DHT22;1616;52.394;9.756;2023-07-20T09:12:40;30.30;1.00
3208;DHT22;1616;52.394;9.756;2023-07-20T09:15:06;30.00;1.00
3208;DHT22;1616;52.394;9.756;2023-07-20T09:17:32;30.10;1.00
3208;DHT22;1616;52.394;9.756;2023-07-20T09:20:02;30.40;1.00
3208;DHT22;1616;52.394;9.756;2023-07-20T09:22:31;30.90;1.00
3208;DHT22;1616;52.394;9.756;2023-07-20T09:24:58;31.40;1.00
3208;DHT22;1616;52.394;9.756;2023-07-20T09:27:38;32.00;1.00
3208;DHT22;1616;52.394;9.756;2023-07-20T09:30:05;32.60;1.00
3208;DHT22;1616;52.394;9.756;2023-07-20T09:32:44;33.10;1.00
3208;DHT22;1616;52.394;9.756;2023-07-20T09:35:17;33.50;1.00
3208;DHT22;1616;52.394;9.756;2023-07-20T09:38:01;33.80;1.00
3208;DHT22;1616;52.394;9.756;2023-07-20T09:40:28;33.90;1.00
3208;DHT22;1616;52.394;9.756;2023-07-20T09:42:54;34.30;1.00
3208;DHT22;1616;52.394;9.756;2023-07-20T09:48:08;34.90;1.00
3208;DHT22;1616;52.394;9.756;2023-07-20T09:50:41;34.70;1.00
3208;DHT22;1616;52.394;9.756;2023-07-20T09:53:09;34.60;1.00
3208;DHT22;1616;52.394;9.756;2023-07-20T09:55:37;34.60;1.00
3208;DHT22;1616;52.394;9.756;2023-07-20T09:58:03;34.80;1.00
3208;DHT22;1616;52.394;9.756;2023-07-20T10:00:32;35.10;1.00
3208;DHT22;1616;52.394;9.756;2023-07-20T10:02:59;35.50;1.00
3208;DHT22;1616;52.394;9.756;2023-07-20T10:05:28;35.70;1.00
3208;DHT22;1616;52.394;9.756;2023-07-20T10:07:56;35.30;1.00
3208;DHT22;1616;52.394;9.756;2023-07-20T10:10:22;34.80;1.00
3208;DHT22;1616;52.394;9.756;2023-07-20T10:12:49;34.20;1.00
3208;DHT22;1616;52.394;9.756;2023-07-20T10:15:19;33.60;1.00
3208;DHT22;1616;52.394;9.756;2023-07-20T10:20:20;32.90;1.00
3208;DHT22;1616;52.394;9.756;2023-07-20T10:22:48;32.60;1.00
3208;DHT22;1616;52.394;9.756;2023-07-20T10:25:18;32.20;1.00
3208;DHT22;1616;52.394;9.756;2023-07-20T10:27:45;32.10;1.00
3208;DHT22;1616;52.394;9.756;2023-07-20T10:30:13;31.90;1.00
3208;DHT22;1616;52.394;9.756;2023-07-20T10:32:40;31.40;1.00
3208;DHT22;1616;52.394;9.756;2023-07-20T10:35:15;30.80;1.00
3208;DHT22;1616;52.394;9.756;2023-07-20T10:37:48;30.20;1.00
3208;DHT22;1616;52.394;9.756;2023-07-20T10:40:28;29.70;1.00
3208;DHT22;1616;52.394;9.756;2023-07-20T10:43:02;29.20;1.00
3208;DHT22;1616;52.394;9.756;2023-07-20T10:45:57;29.00;1.00
3208;DHT22;1616;52.394;9.756;2023-07-20T10:48:25;29.40;1.00
3208;DHT22;1616;52.394;9.756;2023-07-20T10:53:35;30.90;1.00
3208;DHT22;1616;52.394;9.756;2023-07-20T10:56:15;31.30;1.00
3208;DHT22;1616;52.394;9.756;2023-07-20T10:58:44;31.60;1.00
3208;DHT22;1616;52.394;9.756;2023-07-20T11:01:14;32.10;1.00
3208;DHT22;1616;52.394;9.756;2023-07-20T11:03:41;32.80;1.00
3208;DHT22;1616;52.394;9.756;2023-07-20T11:09:08;33.90;1.00
3208;DHT22;1616;52.394;9.756;2023-07-20T11:11:40;34.40;1.00
3208;DHT22;1616;52.394;9.756;2023-07-20T11:16:34;35.60;1.00
3208;DHT22;1616;52.394;9.756;2023-07-20T11:19:00;36.00;1.00
3208;DHT22;1616;52.394;9.756;2023-07-20T11:21:26;36.00;1.00
3208;DHT22;1616;52.394;9.756;2023-07-20T11:23:53;35.60;1.00
3208;DHT22;1616;52.394;9.756;2023-07-20T11:26:19;35.10;1.00
3208;DHT22;1616;52.394;9.756;2023-07-20T11:28:49;34.90;1.00
3208;DHT22;1616;52.394;9.756;2023-07-20T11:31:18;34.80;1.00
3208;DHT22;1616;52.394;9.756;2023-07-20T11:33:44;34.30;1.00
3208;DHT22;1616;52.394;9.756;2023-07-20T11:36:09;33.50;1.00
3208;DHT22;1616;52.394;9.756;2023-07-20T11:38:35;33.00;1.00
3208;DHT22;1616;52.394;9.756;2023-07-20T11:41:04;33.00;1.00
3208;DHT22;1616;52.394;9.756;2023-07-20T11:43:30;33.30;1.00
3208;DHT22;1616;52.394;9.756;2023-07-20T11:45:56;33.80;1.00
3208;DHT22;1616;52.394;9.756;2023-07-20T11:48:22;34.30;1.00
3208;DHT22;1616;52.394;9.756;2023-07-20T11:50:48;34.00;1.00
3208;DHT22;1616;52.394;9.756;2023-07-20T11:53:15;33.80;1.00
3208;DHT22;1616;52.394;9.756;2023-07-20T11:55:41;33.50;1.00
3208;DHT22;1616;52.394;9.756;2023-07-20T11:58:08;33.10;1.00
3208;DHT22;1616;52.394;9.756;2023-07-20T12:00:35;33.20;1.00
3208;DHT22;1616;52.394;9.756;2023-07-20T12:03:05;33.60;1.00
3208;DHT22;1616;52.394;9.756;2023-07-20T12:05:37;33.70;1.00
3208;DHT22;1616;52.394;9.756;2023-07-20T12:08:03;33.90;1.00
3208;DHT22;1616;52.394;9.756;2023-07-20T12:10:30;34.30;1.00
3208;DHT22;1616;52.394;9.756;2023-07-20T12:13:02;34.90;1.00
3208;DHT22;1616;52.394;9.756;2023-07-20T12:15:31;35.30;1.00
3208;DHT22;1616;52.394;9.756;2023-07-20T12:18:01;35.30;1.00
3208;DHT22;1616;52.394;9.756;2023-07-20T12:20:37;35.40;1.00
3208;DHT22;1616;52.394;9.756;2023-07-20T12:23:11;35.00;1.00
3208;DHT22;1616;52.394;9.756;2023-07-20T12:25:40;34.40;1.00
3208;DHT22;1616;52.394;9.756;2023-07-20T12:28:10;34.30;1.00
3208;DHT22;1616;52.394;9.756;2023-07-20T12:30:40;33.90;1.00
3208;DHT22;1616;52.394;9.756;2023-07-20T12:33:06;33.40;1.00
3208;DHT22;1616;52.394;9.756;2023-07-20T12:35:32;32.90;1.00
3208;DHT22;1616;52.394;9.756;2023-07-20T12:37:58;32.60;1.00
3208;DHT22;1616;52.394;9.756;2023-07-20T12:40:24;32.50;1.00
3208;DHT22;1616;52.394;9.756;2023-07-20T12:42:50;32.60;1.00
3208;DHT22;1616;52.394;9.756;2023-07-20T12:45:16;32.90;1.00
3208;DHT22;1616;52.394;9.756;2023-07-20T12:47:42;33.00;1.00
3208;DHT22;1616;52.394;9.756;2023-07-20T12:50:12;33.30;1.00
3208;DHT22;1616;52.394;9.756;2023-07-20T12:52:39;33.60;1.00
3208;DHT22;1616;52.394;9.756;2023-07-20T12:55:06;33.80;1.00
3208;DHT22;1616;52.394;9.756;2023-07-20T12:57:34;33.80;1.00
3208;DHT22;1616;52.394;9.756;2023-07-20T13:00:09;33.80;1.00
3208;DHT22;1616;52.394;9.756;2023-07-20T13:02:35;33.80;1.00
3208;DHT22;1616;52.394;9.756;2023-07-20T13:05:02;33.70;1.00
3208;DHT22;1616;52.394;9.756;2023-07-20T13:07:32;33.30;1.00
3208;DHT22;1616;52.394;9.756;2023-07-20T13:09:59;32.60;1.00
3208;DHT22;1616;52.394;9.756;2023-07-20T13:12:27;32.10;1.00
3208;DHT22;1616;52.394;9.756;2023-07-20T13:14:53;31.60;1.00
3208;DHT22;1616;52.394;9.756;2023-07-20T13:17:19;31.10;1.00
3208;DHT22;1616;52.394;9.756;2023-07-20T13:19:45;30.60;1.00
3208;DHT22;1616;52.394;9.756;2023-07-20T13:22:10;30.30;1.00
3208;DHT22;1616;52.394;9.756;2023-07-20T13:24:36;30.40;1.00
3208;DHT22;1616;52.394;9.756;2023-07-20T13:27:02;30.30;1.00
3208;DHT22;1616;52.394;9.756;2023-07-20T13:29:28;30.30;1.00
3208;DHT22;1616;52.394;9.756;2023-07-20T13:31:54;30.30;1.00
3208;DHT22;1616;52.394;9.756;2023-07-20T13:34:20;30.30;1.00
3208;DHT22;1616;52.394;9.756;2023-07-20T13:36:45;30.30;1.00
3208;DHT22;1616;52.394;9.756;2023-07-20T13:39:11;29.90;1.00
3208;DHT22;1616;52.394;9.756;2023-07-20T13:41:37;29.70;1.00
3208;DHT22;1616;52.394;9.756;2023-07-20T13:44:03;29.20;1.00
3208;DHT22;1616;52.394;9.756;2023-07-20T13:46:28;28.80;1.00
3208;DHT22;1616;52.394;9.756;2023-07-20T13:48:54;28.30;1.00
3208;DHT22;1616;52.394;9.756;2023-07-20T13:51:19;27.90;1.00
3208;DHT22;1616;52.394;9.756;2023-07-20T13:53:47;27.40;1.00
3208;DHT22;1616;52.394;9.756;2023-07-20T13:56:12;27.00;1.00
3208;DHT22;1616;52.394;9.756;2023-07-20T13:58:38;26.70;1.00
3208;DHT22;1616;52.394;9.756;2023-07-20T14:01:04;26.60;1.00
3208;DHT22;1616;52.394;9.756;2023-07-20T14:03:30;26.40;1.00
3208;DHT22;1616;52.394;9.756;2023-07-20T14:05:56;26.60;1.00
3208;DHT22;1616;52.394;9.756;2023-07-20T14:08:22;26.60;1.00
3208;DHT22;1616;52.394;9.756;2023-07-20T14:10:48;26.80;1.00
3208;DHT22;1616;52.394;9.756;2023-07-20T14:13:14;26.80;1.00
3208;DHT22;1616;52.394;9.756;2023-07-20T14:15:41;26.90;1.00
3208;DHT22;1616;52.394;9.756;2023-07-20T14:18:06;26.80;1.00
3208;DHT22;1616;52.394;9.756;2023-07-20T14:20:32;26.60;1.00
3208;DHT22;1616;52.394;9.756;2023-07-20T14:22:58;26.50;1.00
3208;DHT22;1616;52.394;9.756;2023-07-20T14:25:23;26.40;1.00
3208;DHT22;1616;52.394;9.756;2023-07-20T14:27:49;26.20;1.00
3208;DHT22;1616;52.394;9.756;2023-07-20T14:30:15;26.10;1.00
3208;DHT22;1616;52.394;9.756;2023-07-20T14:32:40;26.20;1.00
3208;DHT22;1616;52.394;9.756;2023-07-20T14:35:07;26.10;1.00
3208;DHT22;1616;52.394;9.756;2023-07-20T14:37:32;26.10;1.00
3208;DHT22;1616;52.394;9.756;2023-07-20T14:39:59;26.10;1.00
3208;DHT22;1616;52.394;9.756;2023-07-20T14:42:25;26.10;1.00
3208;DHT22;1616;52.394;9.756;2023-07-20T14:44:51;26.20;1.00
3208;DHT22;1616;52.394;9.756;2023-07-20T14:47:17;26.40;1.00
3208;DHT22;1616;52.394;9.756;2023-07-20T14:49:44;26.50;1.00
3208;DHT22;1616;52.394;9.756;2023-07-20T14:52:10;26.60;1.00
3208;DHT22;1616;52.394;9.756;2023-07-20T14:54:35;26.80;1.00
3208;DHT22;1616;52.394;9.756;2023-07-20T14:57:01;26.80;1.00
3208;DHT22;1616;52.394;9.756;2023-07-20T14:59:28;26.70;1.00
3208;DHT22;1616;52.394;9.756;2023-07-20T15:01:53;26.70;1.00
3208;DHT22;1616;52.394;9.756;2023-07-20T15:04:19;26.50;1.00
3208;DHT22;1616;52.394;9.756;2023-07-20T15:06:44;26.50;1.00
3208;DHT22;1616;52.394;9.756;2023-07-20T15:09:10;26.40;1.00
3208;DHT22;1616;52.394;9.756;2023-07-20T15:11:36;26.30;1.00
3208;DHT22;1616;52.394;9.756;2023-07-20T15:14:03;26.30;1.00
3208;DHT22;1616;52.394;9.756;2023-07-20T15:16:29;26.20;1.00
3208;DHT22;1616;52.394;9.756;2023-07-20T15:18:54;26.40;1.00
3208;DHT22;1616;52.394;9.756;2023-07-20T15:21:20;26.20;1.00
3208;DHT22;1616;52.394;9.756;2023-07-20T15:23:45;26.20;1.00
3208;DHT22;1616;52.394;9.756;2023-07-20T15:26:11;26.10;1.00
3208;DHT22;1616;52.394;9.756;2023-07-20T15:28:38;26.00;1.00
3208;DHT22;1616;52.394;9.756;2023-07-20T15:31:05;26.00;1.00
3208;DHT22;1616;52.394;9.756;2023-07-20T15:33:31;25.90;1.00
3208;DHT22;1616;52.394;9.756;2023-07-20T15:35:57;25.90;1.00
3208;DHT22;1616;52.394;9.756;2023-07-20T15:38:23;25.80;1.00
3208;DHT22;1616;52.394;9.756;2023-07-20T15:40:49;25.80;1.00
3208;DHT22;1616;52.394;9.756;2023-07-20T15:43:15;25.80;1.00
3208;DHT22;1616;52.394;9.756;2023-07-20T15:45:41;25.80;1.00
3208;DHT22;1616;52.394;9.756;2023-07-20T15:48:07;25.80;1.00
3208;DHT22;1616;52.394;9.756;2023-07-20T15:50:33;25.70;1.00
3208;DHT22;1616;52.394;9.756;2023-07-20T15:52:58;25.60;1.00
3208;DHT22;1616;52.394;9.756;2023-07-20T15:55:24;25.50;1.00
3208;DHT22;1616;52.394;9.756;2023-07-20T15:57:51;25.30;1.00
3208;DHT22;1616;52.394;9.756;2023-07-20T16:00:17;25.10;1.00
3208;DHT22;1616;52.394;9.756;2023-07-20T16:02:43;24.90;1.00
3208;DHT22;1616;52.394;9.756;2023-07-20T16:05:08;24.70;1.00
3208;DHT22;1616;52.394;9.756;2023-07-20T16:07:34;24.50;1.00
3208;DHT22;1616;52.394;9.756;2023-07-20T16:10:00;24.60;1.00
3208;DHT22;1616;52.394;9.756;2023-07-20T16:12:28;24.90;1.00
3208;DHT22;1616;52.394;9.756;2023-07-20T16:14:56;24.00;1.00
3208;DHT22;1616;52.394;9.756;2023-07-20T16:17:22;23.80;1.00
3208;DHT22;1616;52.394;9.756;2023-07-20T16:19:48;23.60;1.00
3208;DHT22;1616;52.394;9.756;2023-07-20T16:22:13;23.50;1.00
3208;DHT22;1616;52.394;9.756;2023-07-20T16:24:39;23.30;1.00
3208;DHT22;1616;52.394;9.756;2023-07-20T16:27:06;23.30;1.00
3208;DHT22;1616;52.394;9.756;2023-07-20T16:29:32;23.30;1.00
3208;DHT22;1616;52.394;9.756;2023-07-20T16:31:58;23.40;1.00
3208;DHT22;1616;52.394;9.756;2023-07-20T16:34:23;23.30;1.00
3208;DHT22;1616;52.394;9.756;2023-07-20T16:36:49;23.30;1.00